Time;durP1;ratioP1;P1;durP2;ratioP2;P2;SDS_P1;SDS_P2;PMS_P1;PMS_P2;Temp;Humidity;BMP_temperature;BMP_pressure;BME280_temperature;BME280_humidity;BME280_pressure;Samples;Min_cycle;Max_cycle;Signal;HPM_P1;HPM_P2
2023/08/11 00:00:09;;;;;;;7.47;5.97;;;;;;;16.28;100.00;99900.19;5137833;28;20354;-65
2023/08/11 00:02:36;;;;;;;9.77;6.63;;;;;;;16.27;100.00;99903.34;5137626;28;20047;-64
2023/08/11 00:05:03;;;;;;;9.73;8.05;;;;;;;16.22;100.00;99891.44;5137910;28;20047;-65
2023/08/11 00:07:29;;;;;;;16.23;6.50;;;;;;;16.21;100.00;99895.38;5137382;27;20133;-62
2023/08/11 00:09:56;;;;;;;10.70;5.97;;;;;;;16.18;100.00;99892.59;5137967;28;20077;-63
2023/08/11 00:12:22;;;;;;;15.43;6.07;;;;;;;16.15;100.00;99894.16;5137425;28;20047;-64
2023/08/11 00:14:48;;;;;;;11.85;6.35;;;;;;;16.15;100.00;99899.69;5137566;28;20061;-62
2023/08/11 00:17:14;;;;;;;9.93;5.93;;;;;;;16.14;100.00;99900.09;5137604;28;20349;-63
2023/08/11 00:19:40;;;;;;;7.63;5.10;;;;;;;16.07;100.00;99897.28;5137451;28;20141;-62
2023/08/11 00:22:06;;;;;;;8.02;5.63;;;;;;;16.13;100.00;99899.31;5137618;28;20075;-65
2023/08/11 00:24:33;;;;;;;11.02;5.93;;;;;;;16.13;100.00;99907.59;5136907;27;20336;-65
2023/08/11 00:27:01;;;;;;;7.30;5.88;;;;;;;16.16;100.00;99911.53;5137578;28;20138;-62
2023/08/11 00:29:28;;;;;;;7.90;5.75;;;;;;;16.17;100.00;99913.16;5137335;28;20062;-64
2023/08/11 00:31:53;;;;;;;7.25;6.00;;;;;;;16.15;100.00;99912.72;5137545;28;20072;-63
2023/08/11 00:34:20;;;;;;;9.93;5.53;;;;;;;16.14;100.00;99908.38;5137006;28;20051;-63
2023/08/11 00:36:46;;;;;;;9.07;5.55;;;;;;;16.20;100.00;99907.66;5137583;28;20099;-62
2023/08/11 00:39:13;;;;;;;7.18;5.22;;;;;;;16.22;100.00;99912.78;5136894;27;20321;-64
2023/08/11 00:41:40;;;;;;;9.75;5.55;;;;;;;16.27;100.00;99909.66;5137495;28;20103;-64
2023/08/11 00:44:06;;;;;;;10.20;5.85;;;;;;;16.20;100.00;99912.38;5137294;28;20058;-64
2023/08/11 00:46:32;;;;;;;7.35;5.10;;;;;;;16.13;100.00;99898.50;5137123;28;20083;-64
2023/08/11 00:48:59;;;;;;;10.70;5.68;;;;;;;16.18;100.00;99887.06;5137082;28;20479;-63
2023/08/11 00:51:25;;;;;;;8.32;5.22;;;;;;;16.11;100.00;99892.56;5136878;28;20138;-63
2023/08/11 00:53:52;;;;;;;8.55;5.22;;;;;;;16.12;100.00;99878.31;5137191;28;20134;-65
2023/08/11 00:56:19;;;;;;;5.68;4.95;;;;;;;16.15;100.00;99879.53;5136997;28;20085;-63
2023/08/11 00:58:46;;;;;;;5.82;4.50;;;;;;;16.02;100.00;99881.03;5137153;28;20059;-62
2023/08/11 01:01:12;;;;;;;7.60;4.50;;;;;;;16.24;100.00;99877.22;5136689;28;20051;-63
2023/08/11 01:03:40;;;;;;;6.90;5.10;;;;;;;16.21;100.00;99881.56;5137132;28;20066;-63
2023/08/11 01:06:19;;;;;;;7.82;4.65;;;;;;;16.32;100.00;99889.91;5136731;28;20054;-65
2023/08/11 01:08:52;;;;;;;10.38;4.90;;;;;;;16.26;100.00;99901.72;5137085;27;20115;-63
2023/08/11 01:11:26;;;;;;;5.32;4.43;;;;;;;16.20;100.00;99899.34;5136948;28;20134;-65
2023/08/11 01:14:02;;;;;;;6.05;4.70;;;;;;;16.20;100.00;99884.72;5136781;28;20043;-62
2023/08/11 01:16:30;;;;;;;5.82;4.70;;;;;;;16.17;100.00;99874.44;5137013;28;20116;-66
2023/08/11 01:18:57;;;;;;;5.28;4.55;;;;;;;16.26;100.00;99880.41;5136631;28;20099;-62
2023/08/11 01:21:26;;;;;;;6.78;4.53;;;;;;;16.33;100.00;99896.28;5136829;28;20142;-64
2023/08/11 01:23:53;;;;;;;11.75;4.57;;;;;;;16.36;100.00;99899.06;5136554;28;20138;-64
2023/08/11 01:26:19;;;;;;;8.48;4.55;;;;;;;16.29;100.00;99895.44;5136927;28;20100;-66
2023/08/11 01:28:47;;;;;;;10.35;5.28;;;;;;;16.33;100.00;99899.03;5136443;28;20062;-62
2023/08/11 01:31:13;;;;;;;7.53;5.13;;;;;;;16.29;100.00;99904.53;5136938;28;20051;-64
2023/08/11 01:33:38;;;;;;;6.78;4.28;;;;;;;16.34;100.00;99895.09;5136626;28;20116;-63
2023/08/11 01:36:05;;;;;;;5.25;4.72;;;;;;;16.27;100.00;99904.13;5136642;27;20491;-62
2023/08/11 01:38:31;;;;;;;7.20;4.60;;;;;;;16.28;100.00;99905.72;5139865;27;20099;-62
2023/08/11 01:40:58;;;;;;;9.18;5.22;;;;;;;16.20;100.00;99901.31;5139901;28;20047;-63
2023/08/11 01:43:25;;;;;;;6.57;5.25;;;;;;;16.19;100.00;99905.25;5140161;28;20138;-63
2023/08/11 01:45:51;;;;;;;6.03;4.68;;;;;;;16.14;100.00;99900.09;5139642;28;20051;-62
2023/08/11 01:48:20;;;;;;;11.32;4.75;;;;;;;16.14;100.00;99884.28;5139947;28;20541;-64
2023/08/11 01:50:46;;;;;;;10.63;4.75;;;;;;;16.20;100.00;99888.28;5139699;28;20066;-64
2023/08/11 01:53:13;;;;;;;7.97;4.75;;;;;;;16.10;100.00;99902.03;5140016;28;20092;-64
2023/08/11 01:55:40;;;;;;;7.35;4.55;;;;;;;16.10;100.00;99910.34;5139559;28;20358;-65
2023/08/11 01:58:07;;;;;;;10.07;4.32;;;;;;;16.10;100.00;99913.09;5140099;28;20134;-65
2023/08/11 02:00:33;;;;;;;7.22;5.00;;;;;;;16.09;100.00;99915.06;5139708;28;20362;-64
2023/08/11 02:02:59;;;;;;;5.97;4.53;;;;;;;16.10;100.00;99926.94;5139713;28;20142;-63
2023/08/11 02:05:25;;;;;;;7.05;4.45;;;;;;;16.08;100.00;99919.00;5139708;28;20047;-62
2023/08/11 02:07:52;;;;;;;5.55;4.82;;;;;;;16.05;100.00;99918.97;5139475;27;20078;-62
2023/08/11 02:10:18;;;;;;;9.95;7.22;;;;;;;16.06;100.00;99904.78;5139660;28;20051;-63
2023/08/11 02:12:43;;;;;;;8.30;5.32;;;;;;;16.00;100.00;99911.84;5139482;28;20134;-65
2023/08/11 02:15:10;;;;;;;8.90;5.18;;;;;;;16.04;100.00;99907.13;5139315;28;20413;-66
2023/08/11 02:17:37;;;;;;;7.18;5.38;;;;;;;16.05;100.00;99905.16;5139199;28;20050;-63
2023/08/11 02:20:13;;;;;;;6.78;5.43;;;;;;;16.05;100.00;99892.09;5139541;28;20051;-64
2023/08/11 02:22:39;;;;;;;9.48;6.57;;;;;;;16.07;100.00;99888.97;5139316;28;20051;-64
2023/08/11 02:25:06;;;;;;;9.15;5.45;;;;;;;16.06;100.00;99895.66;5139598;28;20059;-65
2023/08/11 02:27:32;;;;;;;6.85;4.95;;;;;;;15.74;100.00;99899.78;5139020;28;20051;-66
2023/08/11 02:29:57;;;;;;;9.52;5.78;;;;;;;16.00;100.00;99879.44;5139060;28;20055;-65
2023/08/11 02:32:24;;;;;;;9.70;4.93;;;;;;;15.93;100.00;99882.16;5139320;28;20138;-65
2023/08/11 02:34:50;;;;;;;9.25;5.35;;;;;;;16.09;100.00;99881.06;5139156;28;20051;-66
2023/08/11 02:37:16;;;;;;;8.45;5.53;;;;;;;15.93;100.00;99892.44;5139181;27;20085;-65
2023/08/11 02:39:42;;;;;;;9.63;5.60;;;;;;;16.02;100.00;99897.63;5138763;28;20332;-63
2023/08/11 02:42:08;;;;;;;12.55;5.25;;;;;;;15.98;100.00;99898.38;5139263;28;20051;-63
2023/08/11 02:44:33;;;;;;;5.68;4.80;;;;;;;16.04;100.00;99892.50;5138909;28;20134;-63
2023/08/11 02:46:59;;;;;;;8.02;6.40;;;;;;;15.93;100.00;99895.19;5138919;27;20130;-62
2023/08/11 02:49:26;;;;;;;11.93;6.88;;;;;;;15.96;100.00;99889.69;5138716;28;20504;-63
2023/08/11 02:51:52;;;;;;;8.35;6.43;;;;;;;15.94;100.00;99894.81;5139180;28;20046;-62
2023/08/11 02:54:19;;;;;;;7.07;5.38;;;;;;;15.91;100.00;99878.97;5138649;28;20191;-65
2023/08/11 02:56:46;;;;;;;8.20;5.20;;;;;;;15.90;100.00;99882.13;5139085;28;20093;-63
2023/08/11 02:59:12;;;;;;;11.88;5.28;;;;;;;15.93;100.00;99873.88;5138893;28;20480;-62
2023/08/11 03:01:38;;;;;;;7.57;4.95;;;;;;;15.85;100.00;99876.94;5138749;28;20138;-62
2023/08/11 03:04:04;;;;;;;11.73;5.28;;;;;;;15.84;100.00;99876.16;5138900;28;20046;-62
2023/08/11 03:06:31;;;;;;;6.43;4.45;;;;;;;15.80;100.00;99871.78;5138365;28;20089;-62
2023/08/11 03:08:57;;;;;;;5.68;4.15;;;;;;;15.82;100.00;99886.78;5138773;27;20047;-64
2023/08/11 03:11:23;;;;;;;7.90;4.15;;;;;;;15.87;100.00;99888.44;5138460;28;20062;-62
2023/08/11 03:13:48;;;;;;;12.10;4.50;;;;;;;15.88;100.00;99893.56;5138659;28;20062;-63
2023/08/11 03:16:15;;;;;;;5.88;4.07;;;;;;;15.86;100.00;99897.88;5138402;28;20047;-64
2023/08/11 03:18:41;;;;;;;7.97;4.03;;;;;;;15.97;100.00;99910.63;5138573;28;20043;-62
2023/08/11 03:21:07;;;;;;;8.05;3.75;;;;;;;16.02;100.00;99936.34;5138168;28;20062;-62
2023/08/11 03:23:35;;;;;;;4.75;3.83;;;;;;;16.35;100.00;99943.69;5138641;28;20051;-65
2023/08/11 03:26:01;;;;;;;9.05;4.55;;;;;;;16.67;100.00;99958.53;5138038;28;20146;-63
2023/08/11 03:28:27;;;;;;;5.88;3.40;;;;;;;16.94;100.00;99992.34;5138082;28;20043;-64
2023/08/11 03:30:53;;;;;;;7.68;3.40;;;;;;;17.38;100.00;100015.50;5138285;28;20160;-65
2023/08/11 03:33:19;;;;;;;4.78;2.90;;;;;;;17.66;100.00;100014.81;5138201;28;20108;-65
2023/08/11 03:35:46;;;;;;;4.13;3.58;;;;;;;17.89;100.00;99953.44;5138335;28;20055;-65
2023/08/11 03:38:12;;;;;;;3.42;2.75;;;;;;;18.17;100.00;99827.78;5137848;27;20051;-64
2023/08/11 03:40:38;;;;;;;6.22;3.30;;;;;;;18.48;100.00;99625.44;5138260;28;20144;-66
2023/08/11 03:43:04;;;;;;;7.03;2.95;;;;;;;18.83;100.00;99466.06;5137972;28;20051;-65
2023/08/11 03:45:30;;;;;;;3.90;3.50;;;;;;;19.14;100.00;99300.16;5138255;28;20061;-66
2023/08/11 03:47:56;;;;;;;8.52;3.50;;;;;;;18.87;100.00;99197.38;5137819;28;20325;-65
2023/08/11 03:50:22;;;;;;;2.58;2.30;;;;;;;19.37;100.00;99029.78;5138265;28;20462;-66
2023/08/11 03:52:48;;;;;;;3.92;2.25;;;;;;;19.39;100.00;98941.19;5137633;28;20058;-64
2023/08/11 03:55:14;;;;;;;3.45;2.65;;;;;;;19.27;100.00;98895.38;5137817;28;20051;-64
2023/08/11 03:57:40;;;;;;;4.97;2.92;;;;;;;19.02;100.00;98837.56;5137597;28;20043;-65
2023/08/11 04:00:11;;;;;;;3.10;2.75;;;;;;;19.87;100.00;98808.22;5136902;27;20336;-64
2023/08/11 04:02:37;;;;;;;8.98;2.80;;;;;;;20.46;100.00;98706.81;5137867;28;20109;-66
2023/08/11 04:05:03;;;;;;;5.32;2.60;;;;;;;20.40;100.00;98691.88;5137489;28;20449;-66
2023/08/11 04:07:28;;;;;;;5.47;2.60;;;;;;;20.70;100.00;98584.00;5137823;27;20054;-64
2023/08/11 04:09:54;;;;;;;3.72;2.20;;;;;;;21.06;100.00;98547.34;5137389;28;20086;-64
2023/08/11 04:12:20;;;;;;;5.72;2.58;;;;;;;20.94;100.00;98550.97;5137887;28;20047;-63
2023/08/11 04:14:47;;;;;;;3.30;2.75;;;;;;;21.51;100.00;98549.75;5137361;28;20134;-64
2023/08/11 04:17:16;;;;;;;4.65;2.70;;;;;;;21.74;100.00;98547.75;5137727;28;20408;-66
2023/08/11 04:19:42;;;;;;;2.67;2.30;;;;;;;21.73;100.00;98599.19;5137278;28;20051;-63
2023/08/11 04:22:08;;;;;;;2.80;2.40;;;;;;;21.49;100.00;98610.81;5137822;28;20196;-65
2023/08/11 04:24:34;;;;;;;5.60;2.38;;;;;;;21.87;100.00;98612.63;5137198;28;20047;-65
2023/08/11 04:27:00;;;;;;;4.25;2.33;;;;;;;21.73;100.00;98646.63;5137428;28;20047;-67
2023/08/11 04:29:26;;;;;;;2.63;2.15;;;;;;;21.75;100.00;98622.59;5137480;28;20061;-66
2023/08/11 04:31:52;;;;;;;2.90;2.70;;;;;;;21.09;100.00;98602.97;5137149;28;20417;-63
2023/08/11 04:34:18;;;;;;;3.20;2.90;;;;;;;21.89;100.00;98626.09;5137524;28;20051;-64
2023/08/11 04:36:45;;;;;;;3.55;2.03;;;;;;;22.18;100.00;98706.81;5137259;28;20137;-63
2023/08/11 04:39:11;;;;;;;3.83;2.55;;;;;;;22.39;100.00;98710.81;5137320;27;20061;-62
2023/08/11 04:41:37;;;;;;;4.10;2.38;;;;;;;22.82;100.00;98726.72;5137140;28;20070;-63
2023/08/11 04:44:04;;;;;;;6.45;2.67;;;;;;;22.71;100.00;98752.31;5137375;28;20111;-66
2023/08/11 04:46:31;;;;;;;3.05;2.67;;;;;;;23.01;100.00;98823.44;5136895;28;20047;-61
2023/08/11 04:48:58;;;;;;;4.45;2.88;;;;;;;23.65;100.00;98864.91;5137426;28;20141;-64
2023/08/11 04:51:24;;;;;;;3.75;2.38;;;;;;;23.40;100.00;98907.88;5136847;28;20193;-64
2023/08/11 04:53:50;;;;;;;3.22;2.92;;;;;;;23.88;100.00;98930.78;5137332;28;20059;-64
2023/08/11 04:56:15;;;;;;;3.95;3.05;;;;;;;24.18;100.00;98934.75;5137072;28;20051;-62
2023/08/11 04:58:42;;;;;;;7.75;2.22;;;;;;;24.29;100.00;98928.75;5136748;28;20077;-61
2023/08/11 05:01:08;;;;;;;5.28;3.08;;;;;;;24.03;100.00;98975.81;5136789;28;20059;-64
2023/08/11 05:03:34;;;;;;;5.90;2.55;;;;;;;24.39;100.00;98972.34;5136903;28;20047;-61
2023/08/11 05:06:00;;;;;;;2.92;2.70;;;;;;;24.75;100.00;99021.28;5136748;28;20138;-62
2023/08/11 05:08:26;;;;;;;5.65;2.97;;;;;;;24.97;100.00;99017.59;5136711;27;20143;-60
2023/08/11 05:10:52;;;;;;;4.55;3.10;;;;;;;25.19;100.00;99054.72;5138543;27;20086;-64
2023/08/11 05:13:18;;;;;;;5.05;2.67;;;;;;;24.64;100.00;99037.78;5140291;28;20062;-66
2023/08/11 05:15:45;;;;;;;8.68;2.65;;;;;;;23.78;100.00;98995.59;5140579;28;20051;-65
2023/08/11 05:18:10;;;;;;;7.32;3.15;;;;;;;24.93;100.00;99031.78;5140106;28;20112;-62
2023/08/11 05:20:36;;;;;;;4.95;3.33;;;;;;;25.03;100.00;99075.41;5140394;28;20054;-61
2023/08/11 05:23:04;;;;;;;3.63;2.70;;;;;;;24.51;100.00;99053.94;5139877;28;20141;-62
2023/08/11 05:25:30;;;;;;;4.28;2.83;;;;;;;24.93;100.00;99124.31;5140018;28;20050;-63
2023/08/11 05:27:56;;;;;;;2.85;2.60;;;;;;;24.89;100.00;99067.56;5140088;28;20381;-66
2023/08/11 05:30:25;;;;;;;4.75;2.88;;;;;;;25.69;100.00;99102.22;5140066;28;20047;-66
2023/08/11 05:32:51;;;;;;;4.93;2.92;;;;;;;25.12;100.00;99099.88;5140093;28;20047;-63
2023/08/11 05:35:17;;;;;;;3.70;3.00;;;;;;;25.89;100.00;99119.41;5139995;28;20071;-62
2023/08/11 05:37:43;;;;;;;3.08;2.58;;;;;;;25.80;100.00;99153.88;5140043;27;20043;-66
2023/08/11 05:40:11;;;;;;;3.13;2.50;;;;;;;26.09;100.00;99138.56;5139658;28;20065;-66
2023/08/11 05:42:38;;;;;;;5.40;2.88;;;;;;;25.90;100.00;99137.81;5139941;28;20047;-65
2023/08/11 05:45:05;;;;;;;2.83;2.60;;;;;;;25.93;100.00;99167.00;5139490;28;20047;-65
2023/08/11 05:47:30;;;;;;;5.10;3.17;;;;;;;26.74;100.00;99196.16;5139831;28;20051;-66
2023/08/11 05:49:56;;;;;;;2.88;2.58;;;;;;;26.47;100.00;99142.81;5139433;28;20065;-65
2023/08/11 05:52:22;;;;;;;4.20;3.40;;;;;;;26.77;100.00;99182.41;5139656;28;20112;-64
2023/08/11 05:54:48;;;;;;;6.10;3.40;;;;;;;27.15;100.00;99215.53;5139701;28;20138;-63
2023/08/11 05:57:15;;;;;;;4.35;3.00;;;;;;;26.85;100.00;99229.38;5139335;28;20491;-62
2023/08/11 05:59:41;;;;;;;5.22;2.90;;;;;;;27.24;100.00;99229.53;5139474;28;20066;-61
2023/08/11 06:02:07;;;;;;;6.43;2.78;;;;;;;27.08;100.00;99218.66;5139435;28;20051;-62
2023/08/11 06:04:33;;;;;;;3.10;2.72;;;;;;;26.94;100.00;99198.41;5139596;28;20078;-63
2023/08/11 06:06:59;;;;;;;3.60;2.90;;;;;;;27.57;100.00;99225.91;5139140;28;20051;-64
2023/08/11 06:09:25;;;;;;;5.88;2.95;;;;;;;27.96;100.00;99245.66;5139429;27;20051;-66
2023/08/11 06:11:50;;;;;;;4.03;2.88;;;;;;;27.52;100.00;99229.38;5139099;28;20367;-63
2023/08/11 06:14:17;;;;;;;3.63;3.00;;;;;;;27.75;100.00;99244.69;5139296;28;20140;-63
2023/08/11 06:16:43;;;;;;;4.50;3.10;;;;;;;27.40;100.00;99246.03;5138967;28;20420;-63
2023/08/11 06:19:09;;;;;;;4.05;2.83;;;;;;;27.23;100.00;99221.59;5138743;28;20480;-62
2023/08/11 06:21:35;;;;;;;6.03;3.00;;;;;;;27.93;100.00;99253.06;5138593;27;20135;-62
2023/08/11 06:24:01;;;;;;;3.63;2.90;;;;;;;27.94;100.00;99253.81;5138496;28;20138;-64
2023/08/11 06:26:27;;;;;;;3.70;2.95;;;;;;;28.26;100.00;99243.69;5138741;28;20058;-65
2023/08/11 06:28:53;;;;;;;3.83;2.70;;;;;;;28.24;100.00;99271.56;5138653;28;20082;-66
2023/08/11 06:31:19;;;;;;;6.88;2.90;;;;;;;27.47;100.00;99258.19;5138819;28;20150;-65
2023/08/11 06:33:45;;;;;;;2.92;2.72;;;;;;;28.58;100.00;99287.88;5138892;28;20134;-65
2023/08/11 06:36:11;;;;;;;5.75;2.75;;;;;;;28.35;100.00;99299.97;5139056;28;20405;-62
2023/08/11 06:38:37;;;;;;;3.30;3.00;;;;;;;28.17;100.00;99297.31;5138493;27;20158;-64
2023/08/11 06:41:03;;;;;;;5.43;3.53;;;;;;;28.60;100.00;99307.91;5138807;28;20142;-63
2023/08/11 06:43:30;;;;;;;3.30;3.05;;;;;;;29.45;100.00;99324.19;5138630;28;20043;-66
2023/08/11 06:45:56;;;;;;;4.20;3.15;;;;;;;29.44;100.00;99319.03;5138796;28;20069;-62
2023/08/11 06:48:22;;;;;;;4.72;2.88;;;;;;;29.94;100.00;99328.25;5138367;28;20405;-63
2023/08/11 06:50:48;;;;;;;8.15;3.17;;;;;;;29.59;100.00;99327.47;5138850;28;20138;-64
2023/08/11 06:53:14;;;;;;;6.47;2.80;;;;;;;30.07;100.00;99335.59;5138425;28;20057;-67
2023/08/11 06:55:40;;;;;;;4.57;2.92;;;;;;;29.58;100.00;99331.56;5138197;28;20059;-65
2023/08/11 06:58:06;;;;;;;5.53;3.15;;;;;;;29.88;100.00;99330.22;5138599;28;20047;-65
2023/08/11 07:00:32;;;;;;;3.53;2.60;;;;;;;29.97;100.00;99338.56;5138230;28;20051;-63
2023/08/11 07:02:58;;;;;;;4.72;2.90;;;;;;;30.17;100.00;99337.78;5138317;28;20130;-62
2023/08/11 07:05:24;;;;;;;5.85;3.17;;;;;;;29.99;99.80;99338.84;5138327;28;20111;-63
2023/08/11 07:07:50;;;;;;;3.90;3.17;;;;;;;30.76;100.00;99345.16;5138500;27;20461;-63
2023/08/11 07:10:16;;;;;;;4.60;3.17;;;;;;;30.90;100.00;99349.94;5138255;28;20195;-64
2023/08/11 07:12:42;;;;;;;3.83;3.05;;;;;;;30.64;94.12;99354.78;5138422;28;20054;-66
2023/08/11 07:15:09;;;;;;;6.47;3.33;;;;;;;31.68;93.06;99354.66;5137975;28;20083;-66
2023/08/11 07:17:35;;;;;;;3.53;2.95;;;;;;;31.03;89.22;99360.09;5138429;28;20094;-62
2023/08/11 07:20:01;;;;;;;3.55;2.80;;;;;;;30.58;91.27;99353.94;5137830;28;20051;-64
2023/08/11 07:22:28;;;;;;;4.65;2.95;;;;;;;29.28;100.00;99357.81;5138168;28;20047;-63
2023/08/11 07:24:54;;;;;;;7.40;3.47;;;;;;;28.75;100.00;99327.66;5138100;28;20149;-62
2023/08/11 07:27:19;;;;;;;8.38;3.15;;;;;;;28.52;100.00;99332.09;5137888;28;20138;-65
2023/08/11 07:29:45;;;;;;;4.22;3.15;;;;;;;28.48;100.00;99339.19;5138221;28;20101;-67
2023/08/11 07:32:11;;;;;;;7.22;3.35;;;;;;;28.47;100.00;99332.78;5137783;28;20200;-62
2023/08/11 07:34:38;;;;;;;3.65;3.33;;;;;;;28.82;100.00;99323.66;5136783;27;20377;-61
2023/08/11 07:37:04;;;;;;;3.40;3.10;;;;;;;28.33;100.00;99331.47;5137755;28;20047;-63
2023/08/11 07:39:31;;;;;;;4.97;3.42;;;;;;;28.20;100.00;99318.91;5137890;27;20051;-62
2023/08/11 07:42:02;;;;;;;3.63;3.30;;;;;;;27.44;100.00;99316.22;5137568;28;20047;-61
2023/08/11 07:44:28;;;;;;;5.15;3.60;;;;;;;27.24;100.00;99311.16;5138060;28;20047;-58
2023/08/11 07:46:55;;;;;;;6.68;3.45;;;;;;;26.32;100.00;99302.09;5137415;28;20478;-62
2023/08/11 07:49:21;;;;;;;5.53;3.40;;;;;;;27.00;100.00;99277.31;5137832;28;20316;-58
2023/08/11 07:51:47;;;;;;;4.32;3.70;;;;;;;27.01;100.00;99307.00;5137636;28;20163;-58
2023/08/11 07:54:13;;;;;;;5.93;3.50;;;;;;;27.24;100.00;99311.16;5137602;28;20424;-60
2023/08/11 07:56:40;;;;;;;7.07;4.22;;;;;;;27.74;100.00;99300.25;5137485;28;20051;-62
2023/08/11 07:59:06;;;;;;;6.40;3.50;;;;;;;28.72;100.00;99299.63;5137379;28;20047;-63
2023/08/11 08:01:33;;;;;;;8.32;3.60;;;;;;;28.09;100.00;99306.16;5137454;28;20120;-63
2023/08/11 08:03:59;;;;;;;4.47;3.08;;;;;;;28.40;100.00;99307.78;5137215;28;20051;-61
2023/08/11 08:06:25;;;;;;;4.78;3.20;;;;;;;29.06;100.00;99326.44;5137591;28;20043;-59
2023/08/11 08:08:51;;;;;;;5.30;3.08;;;;;;;29.44;97.71;99330.34;5137104;27;20074;-59
2023/08/11 08:11:17;;;;;;;5.72;3.30;;;;;;;29.89;88.30;99336.63;5137340;28;20317;-61
2023/08/11 08:13:44;;;;;;;9.63;3.38;;;;;;;29.98;81.37;99345.00;5137220;28;20043;-61
2023/08/11 08:16:10;;;;;;;4.90;3.13;;;;;;;30.42;83.22;99344.00;5137485;28;20053;-59
2023/08/11 08:18:36;;;;;;;7.65;4.30;;;;;;;29.29;94.40;99336.81;5136803;28;20046;-62
2023/08/11 08:21:02;;;;;;;4.72;3.65;;;;;;;29.28;93.29;99335.22;5136928;28;20068;-63
2023/08/11 08:23:28;;;;;;;6.18;3.40;;;;;;;29.67;85.82;99342.78;5137059;28;20412;-62
2023/08/11 08:25:54;;;;;;;5.97;2.88;;;;;;;30.03;80.92;99341.47;5137105;28;20047;-61
2023/08/11 08:28:20;;;;;;;5.28;3.00;;;;;;;29.77;89.41;99336.50;5137114;28;20111;-63
2023/08/11 08:30:47;;;;;;;3.15;2.75;;;;;;;29.25;99.08;99318.50;5136819;28;20062;-60
2023/08/11 08:33:13;;;;;;;3.22;2.70;;;;;;;29.35;100.00;99314.28;5137036;28;20079;-59
2023/08/11 08:35:39;;;;;;;3.47;2.88;;;;;;;28.20;100.00;99299.94;5136849;28;20062;-60
2023/08/11 08:38:05;;;;;;;5.35;3.22;;;;;;;27.78;100.00;99302.91;5136892;27;20051;-62
2023/08/11 08:40:32;;;;;;;7.07;2.88;;;;;;;27.34;100.00;99297.84;5136451;28;20043;-62
2023/08/11 08:42:58;;;;;;;6.10;3.42;;;;;;;27.26;100.00;99294.59;5137123;28;20043;-60
2023/08/11 08:45:25;;;;;;;9.98;3.65;;;;;;;27.31;100.00;99279.84;5137363;27;20051;-61
2023/08/11 08:47:53;;;;;;;3.97;3.30;;;;;;;27.66;100.00;99257.59;5140817;28;20408;-64
2023/08/11 08:50:19;;;;;;;6.82;3.38;;;;;;;28.29;100.00;99273.69;5140730;28;20070;-60
2023/08/11 08:52:46;;;;;;;4.82;3.42;;;;;;;27.93;100.00;99267.13;5140611;28;20061;-60
2023/08/11 08:55:12;;;;;;;7.07;3.10;;;;;;;28.03;100.00;99251.72;5140561;28;20043;-62
2023/08/11 08:57:39;;;;;;;5.88;3.53;;;;;;;28.59;98.61;99297.09;5140160;28;20481;-61
2023/08/11 09:00:07;;;;;;;7.50;3.30;;;;;;;29.81;100.00;99295.97;5140375;28;20480;-60
2023/08/11 09:02:33;;;;;;;5.05;2.70;;;;;;;29.60;82.87;99320.59;5140223;28;20047;-60
2023/08/11 09:05:00;;;;;;;7.75;3.13;;;;;;;30.69;80.36;99318.06;5140477;28;20114;-63
2023/08/11 09:07:27;;;;;;;5.03;3.30;;;;;;;30.16;77.06;99324.16;5139995;27;20366;-64
2023/08/11 09:09:53;;;;;;;4.95;3.30;;;;;;;29.02;82.74;99318.16;5140587;28;20412;-60
2023/08/11 09:12:19;;;;;;;6.05;3.10;;;;;;;30.71;79.74;99318.31;5140054;28;20083;-62
2023/08/11 09:14:45;;;;;;;5.97;3.13;;;;;;;29.52;79.48;99311.72;5140501;28;20116;-60
2023/08/11 09:17:11;;;;;;;6.30;3.10;;;;;;;28.49;76.53;99321.00;5140012;28;20051;-60
2023/08/11 09:19:37;;;;;;;3.75;3.10;;;;;;;27.99;85.70;99301.03;5139916;28;20043;-59
2023/08/11 09:22:09;;;;;;;3.17;2.53;;;;;;;27.86;84.62;99316.19;5140161;28;20132;-63
2023/08/11 09:24:35;;;;;;;4.43;2.65;;;;;;;27.12;90.13;99304.44;5139956;28;20043;-63
2023/08/11 09:27:02;;;;;;;3.70;2.92;;;;;;;28.09;89.57;99305.34;5140108;28;20380;-63
2023/08/11 09:29:28;;;;;;;5.25;2.97;;;;;;;28.65;84.82;99305.66;5139887;28;20051;-62
2023/08/11 09:31:55;;;;;;;4.70;3.00;;;;;;;29.11;79.05;99299.53;5140171;28;20051;-63
2023/08/11 09:34:21;;;;;;;6.18;2.95;;;;;;;29.71;70.36;99310.22;5139924;28;20133;-61
2023/08/11 09:36:48;;;;;;;3.03;2.75;;;;;;;30.36;67.15;99324.16;5140297;28;20134;-60
2023/08/11 09:39:16;;;;;;;5.97;2.80;;;;;;;30.92;66.70;99310.59;5139623;27;20057;-61
2023/08/11 09:41:43;;;;;;;3.92;2.60;;;;;;;30.61;69.71;99304.84;5140067;28;20061;-60
2023/08/11 09:44:10;;;;;;;3.97;2.90;;;;;;;31.41;63.95;99300.16;5139509;28;20440;-60
2023/08/11 09:46:37;;;;;;;6.20;3.60;;;;;;;31.18;72.70;99301.25;5139499;28;20146;-63
2023/08/11 09:49:04;;;;;;;5.25;2.88;;;;;;;29.75;66.71;99310.00;5139566;28;20051;-62
2023/08/11 09:51:32;;;;;;;3.80;2.60;;;;;;;30.71;64.13;99309.84;5139553;28;20055;-62
2023/08/11 09:54:01;;;;;;;9.35;2.60;;;;;;;29.31;66.55;99316.53;5139785;28;20133;-60
2023/08/11 09:56:31;;;;;;;3.58;2.70;;;;;;;30.26;64.69;99317.09;5139058;27;20047;-62
2023/08/11 09:58:59;;;;;;;4.07;2.65;;;;;;;30.40;62.15;99313.41;5139194;28;20393;-61
2023/08/11 10:01:27;;;;;;;4.40;2.58;;;;;;;30.88;60.18;99306.41;5139302;28;20138;-61
2023/08/11 10:03:57;;;;;;;4.55;2.42;;;;;;;29.64;58.34;99318.34;5139763;28;20082;-63
2023/08/11 10:06:27;;;;;;;4.72;2.53;;;;;;;30.46;58.07;99311.41;5139185;28;20047;-62
2023/08/11 10:08:57;;;;;;;3.38;2.50;;;;;;;31.45;58.52;99305.56;5139584;27;20078;-63
2023/08/11 10:11:25;;;;;;;8.05;3.00;;;;;;;31.23;60.61;99303.34;5139174;28;20480;-65
2023/08/11 10:13:53;;;;;;;2.80;2.60;;;;;;;30.22;62.65;99300.34;5139245;28;20344;-62
2023/08/11 10:16:19;;;;;;;2.80;2.60;;;;;;;30.81;60.01;99293.50;5139362;28;20062;-60
2023/08/11 10:18:46;;;;;;;7.07;2.80;;;;;;;30.82;58.98;99299.91;5138830;28;20047;-60
2023/08/11 10:21:13;;;;;;;3.35;2.60;;;;;;;31.05;58.75;99298.06;5139247;28;20051;-58
2023/08/11 10:23:40;;;;;;;5.15;2.53;;;;;;;30.98;58.81;99287.97;5138726;28;20051;-61
2023/08/11 10:26:06;;;;;;;3.30;3.00;;;;;;;29.99;61.00;99302.13;5139187;28;20129;-62
2023/08/11 10:28:33;;;;;;;3.10;2.80;;;;;;;29.98;62.46;99294.88;5138988;28;20093;-60
2023/08/11 10:31:01;;;;;;;4.05;2.63;;;;;;;29.65;62.42;99302.94;5139357;28;20078;-61
2023/08/11 10:33:29;;;;;;;3.28;2.50;;;;;;;30.46;58.58;99310.63;5138973;28;20050;-63
2023/08/11 10:35:58;;;;;;;3.28;2.42;;;;;;;30.21;57.13;99301.59;5139271;28;20141;-59
2023/08/11 10:38:26;;;;;;;4.13;2.97;;;;;;;29.75;62.78;99284.56;5138736;27;20047;-60
2023/08/11 10:40:57;;;;;;;2.85;2.47;;;;;;;29.19;61.26;99303.50;5138754;28;20134;-64
2023/08/11 10:43:30;;;;;;;3.78;2.40;;;;;;;28.95;63.79;99304.38;5138933;28;20050;-61
2023/08/11 10:45:56;;;;;;;3.13;2.30;;;;;;;28.38;60.84;99301.81;5139103;28;20043;-63
2023/08/11 10:48:23;;;;;;;5.25;3.55;;;;;;;28.09;70.47;99288.44;5139783;28;20054;-60
2023/08/11 10:50:49;;;;;;;4.47;3.00;;;;;;;27.74;82.75;99280.53;5139090;28;20066;-65
2023/08/11 10:53:18;;;;;;;7.72;5.70;;;;;;;27.64;88.37;99273.41;5138860;28;20051;-60
2023/08/11 10:55:58;;;;;;;7.57;3.50;;;;;;;27.41;92.22;99266.50;5138499;28;20092;-61
2023/08/11 10:58:25;;;;;;;5.78;2.80;;;;;;;27.16;100.00;99248.81;5139086;28;20070;-61
2023/08/11 11:00:51;;;;;;;3.72;3.17;;;;;;;27.26;100.00;99251.56;5138737;28;20051;-61
2023/08/11 11:03:18;;;;;;;5.82;3.20;;;;;;;27.05;100.00;99239.31;5138383;28;20424;-62
2023/08/11 11:05:44;;;;;;;3.22;2.80;;;;;;;26.84;100.00;99239.06;5138688;28;20114;-62
2023/08/11 11:08:11;;;;;;;3.67;3.20;;;;;;;26.84;100.00;99236.28;5138106;27;20055;-59
2023/08/11 11:10:37;;;;;;;4.38;3.10;;;;;;;26.43;100.00;99210.44;5138309;28;20062;-62
2023/08/11 11:13:03;;;;;;;10.98;7.00;;;;;;;26.30;100.00;99178.94;5138121;28;20062;-60
2023/08/11 11:15:29;;;;;;;7.00;3.40;;;;;;;26.49;100.00;99160.81;5138611;28;20297;-63
2023/08/11 11:17:55;;;;;;;5.95;3.33;;;;;;;26.46;100.00;99169.38;5138109;28;20074;-60
2023/08/11 11:20:21;;;;;;;6.60;3.42;;;;;;;26.70;100.00;99142.13;5138024;28;20062;-63
2023/08/11 11:22:48;;;;;;;5.22;3.63;;;;;;;26.92;100.00;99166.38;5138111;28;20134;-62